sensor_id;sensor_type;location;lat;lon;timestamp;pressure;altitude;pressure_sealevel;temperature;humidity
64019;BME280;66942;52.138;5.216;2023-02-14T00:00:21;103558.99999999999;;;3.39;75.99
64019;BME280;66942;52.138;5.216;2023-02-14T00:03:33;103557.0;;;3.53;75.5
64019;BME280;66942;52.138;5.216;2023-02-14T00:05:10;103557.0;;;3.51;75.48
64019;BME280;66942;52.138;5.216;2023-02-14T00:06:46;103550.0;;;3.6;75.05
64019;BME280;66942;52.138;5.216;2023-02-14T00:08:23;103549.0;;;3.62;74.91
64019;BME280;66942;52.138;5.216;2023-02-14T00:11:35;103557.0;;;3.43;75.42
64019;BME280;66942;52.138;5.216;2023-02-14T00:13:12;103556.0;;;3.37;75.72
64019;BME280;66942;52.138;5.216;2023-02-14T00:15:53;103553.0;;;3.46;75.38
64019;BME280;66942;52.138;5.216;2023-02-14T00:17:30;103553.0;;;3.54;74.91
64019;BME280;66942;52.138;5.216;2023-02-14T00:19:06;103553.0;;;3.29;75.56
64019;BME280;66942;52.138;5.216;2023-02-14T00:22:19;103554.0;;;3.14;75.97
64019;BME280;66942;52.138;5.216;2023-02-14T00:23:55;103553.0;;;3.24;75.64
64019;BME280;66942;52.138;5.216;2023-02-14T00:25:32;103550.0;;;3.23;75.86
64019;BME280;66942;52.138;5.216;2023-02-14T00:27:09;103545.0;;;3.2;75.87
64019;BME280;66942;52.138;5.216;2023-02-14T00:30:21;103545.0;;;3.12;76.0
64019;BME280;66942;52.138;5.216;2023-02-14T00:31:57;103544.0;;;3.21;75.53
64019;BME280;66942;52.138;5.216;2023-02-14T00:33:34;103546.0;;;3.25;75.52
64019;BME280;66942;52.138;5.216;2023-02-14T00:36:50;103548.0;;;3.45;74.74
64019;BME280;66942;52.138;5.216;2023-02-14T00:38:27;103547.0;;;3.3;75.08
64019;BME280;66942;52.138;5.216;2023-02-14T00:40:05;103547.0;;;3.13;75.63
64019;BME280;66942;52.138;5.216;2023-02-14T00:43:18;103547.0;;;3.19;75.41
64019;BME280;66942;52.138;5.216;2023-02-14T00:44:55;103547.0;;;3.25;75.08
64019;BME280;66942;52.138;5.216;2023-02-14T00:46:31;103542.0;;;2.99;75.88
64019;BME280;66942;52.138;5.216;2023-02-14T00:48:08;103539.00000000001;;;3.0;75.74
64019;BME280;66942;52.138;5.216;2023-02-14T00:51:20;103545.0;;;2.87;76.28
64019;BME280;66942;52.138;5.216;2023-02-14T00:52:57;103539.00000000001;;;3.03;75.7
64019;BME280;66942;52.138;5.216;2023-02-14T00:54:33;103538.00000000001;;;3.08;75.23
64019;BME280;66942;52.138;5.216;2023-02-14T00:57:47;103533.0;;;3.05;75.33
64019;BME280;66942;52.138;5.216;2023-02-14T00:59:23;103533.0;;;3.02;75.34
64019;BME280;66942;52.138;5.216;2023-02-14T01:00:59;103532.0;;;2.91;75.66
64019;BME280;66942;52.138;5.216;2023-02-14T01:04:11;103533.0;;;2.8;75.97
64019;BME280;66942;52.138;5.216;2023-02-14T01:05:48;103528.0;;;2.63;76.39
64019;BME280;66942;52.138;5.216;2023-02-14T01:07:25;103529.0;;;2.74;75.99
64019;BME280;66942;52.138;5.216;2023-02-14T01:09:02;103526.0;;;2.75;75.89
64019;BME280;66942;52.138;5.216;2023-02-14T01:12:15;103532.0;;;2.73;76.05
64019;BME280;66942;52.138;5.216;2023-02-14T01:13:54;103520.0;;;2.63;76.33
64019;BME280;66942;52.138;5.216;2023-02-14T01:15:32;103526.0;;;2.8;75.28
64019;BME280;66942;52.138;5.216;2023-02-14T01:18:49;103520.0;;;2.75;75.61
64019;BME280;66942;52.138;5.216;2023-02-14T01:20:26;103521.0;;;2.73;75.56
64019;BME280;66942;52.138;5.216;2023-02-14T01:22:02;103519.0;;;2.81;75.27
64019;BME280;66942;52.138;5.216;2023-02-14T01:23:39;103517.0;;;2.72;75.28
64019;BME280;66942;52.138;5.216;2023-02-14T01:26:53;103514.00000000001;;;2.71;75.39
64019;BME280;66942;52.138;5.216;2023-02-14T01:28:29;103508.99999999999;;;2.72;75.34
64019;BME280;66942;52.138;5.216;2023-02-14T01:30:06;103509.99999999999;;;2.57;75.92
64019;BME280;66942;52.138;5.216;2023-02-14T01:33:20;103508.99999999999;;;2.65;75.64
64019;BME280;66942;52.138;5.216;2023-02-14T01:34:56;103508.0;;;2.62;75.59
64019;BME280;66942;52.138;5.216;2023-02-14T01:36:36;103508.0;;;2.52;75.92
64019;BME280;66942;52.138;5.216;2023-02-14T01:38:14;103516.00000000001;;;2.38;76.24
64019;BME280;66942;52.138;5.216;2023-02-14T01:41:28;103511.99999999999;;;2.32;76.58
64019;BME280;66942;52.138;5.216;2023-02-14T01:43:10;103515.00000000001;;;2.46;76.13
64019;BME280;66942;52.138;5.216;2023-02-14T01:44:59;103516.00000000001;;;2.46;76.03
64019;BME280;66942;52.138;5.216;2023-02-14T01:46:41;103514.00000000001;;;2.6;75.61
64019;BME280;66942;52.138;5.216;2023-02-14T01:50:01;103516.00000000001;;;2.56;75.55
64019;BME280;66942;52.138;5.216;2023-02-14T01:51:43;103513.00000000001;;;2.67;75.2
64019;BME280;66942;52.138;5.216;2023-02-14T01:53:25;103505.0;;;2.91;74.48
64019;BME280;66942;52.138;5.216;2023-02-14T01:55:07;103506.0;;;2.92;74.27
64019;BME280;66942;52.138;5.216;2023-02-14T01:58:28;103504.0;;;2.72;74.73
64019;BME280;66942;52.138;5.216;2023-02-14T02:01:11;103506.0;;;2.48;75.48
64019;BME280;66942;52.138;5.216;2023-02-14T02:02:49;103504.0;;;2.46;75.27
64019;BME280;66942;52.138;5.216;2023-02-14T02:04:32;103503.0;;;2.37;75.84
64019;BME280;66942;52.138;5.216;2023-02-14T02:06:12;103509.99999999999;;;2.29;76.08
64019;BME280;66942;52.138;5.216;2023-02-14T02:07:51;103505.0;;;2.31;75.74
64019;BME280;66942;52.138;5.216;2023-02-14T02:11:10;103509.99999999999;;;2.44;75.47
64019;BME280;66942;52.138;5.216;2023-02-14T02:12:47;103508.0;;;2.46;75.34
64019;BME280;66942;52.138;5.216;2023-02-14T02:14:28;103508.99999999999;;;2.36;75.55
64019;BME280;66942;52.138;5.216;2023-02-14T02:16:16;103511.99999999999;;;2.34;75.69
64019;BME280;66942;52.138;5.216;2023-02-14T02:20:07;103505.0;;;2.25;75.99
64019;BME280;66942;52.138;5.216;2023-02-14T02:23:46;103505.0;;;2.25;75.94
64019;BME280;66942;52.138;5.216;2023-02-14T02:26:09;103506.0;;;2.25;75.97
64019;BME280;66942;52.138;5.216;2023-02-14T02:30:35;103501.0;;;2.14;76.19
64019;BME280;66942;52.138;5.216;2023-02-14T02:32:38;103508.0;;;2.19;75.92
64019;BME280;66942;52.138;5.216;2023-02-14T02:36:26;103511.99999999999;;;2.13;75.81
64019;BME280;66942;52.138;5.216;2023-02-14T02:38:30;103509.99999999999;;;2.21;75.74
64019;BME280;66942;52.138;5.216;2023-02-14T02:40:26;103508.0;;;2.21;75.77
64019;BME280;66942;52.138;5.216;2023-02-14T02:42:11;103505.0;;;2.14;75.87
64019;BME280;66942;52.138;5.216;2023-02-14T02:44:04;103500.0;;;2.23;75.58
64019;BME280;66942;52.138;5.216;2023-02-14T02:46:53;103498.0;;;2.21;75.52
64019;BME280;66942;52.138;5.216;2023-02-14T02:48:40;103493.0;;;2.19;75.8
64019;BME280;66942;52.138;5.216;2023-02-14T02:54:34;103500.0;;;2.14;75.86
64019;BME280;66942;52.138;5.216;2023-02-14T02:57:22;103499.0;;;2.1;76.06
64019;BME280;66942;52.138;5.216;2023-02-14T02:59:04;103498.0;;;1.98;76.08
64019;BME280;66942;52.138;5.216;2023-02-14T03:00:45;103500.0;;;1.95;76.19
64019;BME280;66942;52.138;5.216;2023-02-14T03:02:26;103493.0;;;1.91;76.3
64019;BME280;66942;52.138;5.216;2023-02-14T03:05:09;103492.0;;;1.85;76.59
64019;BME280;66942;52.138;5.216;2023-02-14T03:06:46;103495.0;;;1.81;76.7
64019;BME280;66942;52.138;5.216;2023-02-14T03:08:22;103484.99999999999;;;1.92;76.47
64019;BME280;66942;52.138;5.216;2023-02-14T03:11:39;103484.99999999999;;;1.85;76.36
64019;BME280;66942;52.138;5.216;2023-02-14T03:13:54;103483.0;;;1.81;76.69
64019;BME280;66942;52.138;5.216;2023-02-14T03:16:33;103480.0;;;2.02;75.97
64019;BME280;66942;52.138;5.216;2023-02-14T03:20:39;103478.0;;;2.23;75.42
64019;BME280;66942;52.138;5.216;2023-02-14T03:22:30;103476.0;;;2.02;75.98
64019;BME280;66942;52.138;5.216;2023-02-14T03:24:24;103480.0;;;1.93;76.19
64019;BME280;66942;52.138;5.216;2023-02-14T03:26:09;103479.0;;;2.04;75.78
64019;BME280;66942;52.138;5.216;2023-02-14T03:27:54;103481.0;;;1.98;76.11
64019;BME280;66942;52.138;5.216;2023-02-14T03:29:42;103484.99999999999;;;1.98;76.06
64019;BME280;66942;52.138;5.216;2023-02-14T03:31:27;103479.0;;;2.02;75.69
64019;BME280;66942;52.138;5.216;2023-02-14T03:34:59;103478.0;;;1.99;75.83
64019;BME280;66942;52.138;5.216;2023-02-14T03:36:45;103479.0;;;1.97;75.86
64019;BME280;66942;52.138;5.216;2023-02-14T03:38:30;103480.0;;;1.89;76.12
64019;BME280;66942;52.138;5.216;2023-02-14T03:40:12;103480.0;;;1.77;76.52
64019;BME280;66942;52.138;5.216;2023-02-14T03:41:58;103478.0;;;1.85;76.41
64019;BME280;66942;52.138;5.216;2023-02-14T03:45:22;103480.0;;;1.8;76.14
64019;BME280;66942;52.138;5.216;2023-02-14T03:47:07;103480.0;;;1.71;76.52
64019;BME280;66942;52.138;5.216;2023-02-14T03:48:46;103480.0;;;1.72;76.47
64019;BME280;66942;52.138;5.216;2023-02-14T03:50:26;103475.0;;;1.76;76.19
64019;BME280;66942;52.138;5.216;2023-02-14T03:52:07;103475.0;;;1.99;75.42
64019;BME280;66942;52.138;5.216;2023-02-14T03:55:35;103476.0;;;1.76;76.19
64019;BME280;66942;52.138;5.216;2023-02-14T03:57:19;103471.0;;;1.93;75.61
64019;BME280;66942;52.138;5.216;2023-02-14T03:59:01;103477.0;;;1.92;75.72
64019;BME280;66942;52.138;5.216;2023-02-14T04:00:42;103474.0;;;1.96;75.72
64019;BME280;66942;52.138;5.216;2023-02-14T04:04:05;103471.0;;;1.88;76.13
64019;BME280;66942;52.138;5.216;2023-02-14T04:05:45;103474.0;;;1.84;75.95
64019;BME280;66942;52.138;5.216;2023-02-14T04:07:23;103479.0;;;1.79;76.16
64019;BME280;66942;52.138;5.216;2023-02-14T04:09:00;103474.0;;;1.95;75.77
64019;BME280;66942;52.138;5.216;2023-02-14T04:12:14;103478.0;;;2.0;75.63
64019;BME280;66942;52.138;5.216;2023-02-14T04:13:53;103478.0;;;1.92;75.77
64019;BME280;66942;52.138;5.216;2023-02-14T04:15:29;103481.0;;;1.85;76.03
64019;BME280;66942;52.138;5.216;2023-02-14T04:21:04;103482.0;;;1.75;76.36
64019;BME280;66942;52.138;5.216;2023-02-14T04:22:40;103481.0;;;1.71;76.44
64019;BME280;66942;52.138;5.216;2023-02-14T04:24:17;103486.99999999999;;;1.74;76.41
64019;BME280;66942;52.138;5.216;2023-02-14T04:25:54;103481.0;;;1.82;75.98
64019;BME280;66942;52.138;5.216;2023-02-14T04:29:06;103483.0;;;1.72;76.12
64019;BME280;66942;52.138;5.216;2023-02-14T04:30:42;103481.0;;;1.7;76.16
64019;BME280;66942;52.138;5.216;2023-02-14T04:32:20;103479.0;;;1.83;76.08
64019;BME280;66942;52.138;5.216;2023-02-14T04:33:58;103475.0;;;1.88;75.64
64019;BME280;66942;52.138;5.216;2023-02-14T04:37:11;103477.0;;;1.8;76.06
64019;BME280;66942;52.138;5.216;2023-02-14T04:38:47;103472.0;;;1.89;75.84
64019;BME280;66942;52.138;5.216;2023-02-14T04:40:23;103470.0;;;1.98;75.44
64019;BME280;66942;52.138;5.216;2023-02-14T04:43:36;103475.0;;;2.05;75.42
64019;BME280;66942;52.138;5.216;2023-02-14T04:45:12;103474.0;;;2.23;74.7
64019;BME280;66942;52.138;5.216;2023-02-14T04:46:49;103473.0;;;2.42;74.2
64019;BME280;66942;52.138;5.216;2023-02-14T04:50:01;103469.0;;;2.4;74.23
64019;BME280;66942;52.138;5.216;2023-02-14T04:51:38;103471.0;;;2.31;74.45
64019;BME280;66942;52.138;5.216;2023-02-14T04:53:14;103470.0;;;2.15;75.17
64019;BME280;66942;52.138;5.216;2023-02-14T04:56:28;103471.0;;;2.35;74.24
64019;BME280;66942;52.138;5.216;2023-02-14T04:58:04;103471.0;;;2.46;74.2
64019;BME280;66942;52.138;5.216;2023-02-14T04:59:40;103472.0;;;2.56;74.14
64019;BME280;66942;52.138;5.216;2023-02-14T05:01:16;103468.0;;;2.5;74.08
64019;BME280;66942;52.138;5.216;2023-02-14T05:04:29;103468.0;;;2.4;74.55
64019;BME280;66942;52.138;5.216;2023-02-14T05:06:05;103469.0;;;2.6;73.97
64019;BME280;66942;52.138;5.216;2023-02-14T05:07:41;103467.0;;;2.56;74.19
64019;BME280;66942;52.138;5.216;2023-02-14T05:10:54;103465.00000000001;;;2.64;73.94
64019;BME280;66942;52.138;5.216;2023-02-14T05:12:31;103463.00000000001;;;2.71;73.88
64019;BME280;66942;52.138;5.216;2023-02-14T05:14:07;103454.0;;;2.66;73.97
64019;BME280;66942;52.138;5.216;2023-02-14T05:17:20;103466.00000000001;;;2.56;74.36
64019;BME280;66942;52.138;5.216;2023-02-14T05:18:56;103467.0;;;2.38;75.14
64019;BME280;66942;52.138;5.216;2023-02-14T05:20:32;103467.0;;;2.29;75.25
64019;BME280;66942;52.138;5.216;2023-02-14T05:22:08;103464.00000000001;;;2.39;75.05
64019;BME280;66942;52.138;5.216;2023-02-14T05:25:21;103464.00000000001;;;2.17;75.52
64019;BME280;66942;52.138;5.216;2023-02-14T05:26:57;103459.99999999999;;;2.14;75.94
64019;BME280;66942;52.138;5.216;2023-02-14T05:28:33;103461.99999999999;;;2.12;76.09
64019;BME280;66942;52.138;5.216;2023-02-14T05:31:48;103466.00000000001;;;2.21;75.77
64019;BME280;66942;52.138;5.216;2023-02-14T05:33:25;103466.00000000001;;;2.11;76.3
64019;BME280;66942;52.138;5.216;2023-02-14T05:35:02;103463.00000000001;;;2.06;76.58
64019;BME280;66942;52.138;5.216;2023-02-14T05:38:15;103459.99999999999;;;2.12;76.23
64019;BME280;66942;52.138;5.216;2023-02-14T05:39:51;103463.00000000001;;;2.1;76.16
64019;BME280;66942;52.138;5.216;2023-02-14T05:41:28;103456.0;;;2.21;75.86
64019;BME280;66942;52.138;5.216;2023-02-14T05:43:05;103461.99999999999;;;2.44;75.12
64019;BME280;66942;52.138;5.216;2023-02-14T05:46:18;103465.00000000001;;;2.21;75.91
64019;BME280;66942;52.138;5.216;2023-02-14T05:47:54;103465.00000000001;;;2.11;76.47
64019;BME280;66942;52.138;5.216;2023-02-14T05:49:30;103468.0;;;2.13;75.97
64019;BME280;66942;52.138;5.216;2023-02-14T05:52:45;103465.00000000001;;;2.04;76.34
64019;BME280;66942;52.138;5.216;2023-02-14T05:54:21;103463.00000000001;;;2.06;76.24
64019;BME280;66942;52.138;5.216;2023-02-14T05:55:57;103458.99999999999;;;1.99;76.55
64019;BME280;66942;52.138;5.216;2023-02-14T05:59:10;103461.99999999999;;;2.08;76.27
64019;BME280;66942;52.138;5.216;2023-02-14T06:00:46;103461.99999999999;;;2.19;75.91
64019;BME280;66942;52.138;5.216;2023-02-14T06:02:23;103464.00000000001;;;2.21;75.97
64019;BME280;66942;52.138;5.216;2023-02-14T06:03:59;103464.00000000001;;;2.29;75.55
64019;BME280;66942;52.138;5.216;2023-02-14T06:07:11;103458.99999999999;;;2.63;74.49
64019;BME280;66942;52.138;5.216;2023-02-14T06:08:47;103458.99999999999;;;2.74;74.05
64019;BME280;66942;52.138;5.216;2023-02-14T06:10:24;103459.99999999999;;;2.31;75.24
64019;BME280;66942;52.138;5.216;2023-02-14T06:13:37;103459.99999999999;;;2.27;75.66
64019;BME280;66942;52.138;5.216;2023-02-14T06:15:13;103458.99999999999;;;2.27;75.52
64019;BME280;66942;52.138;5.216;2023-02-14T06:16:50;103456.0;;;2.31;75.41
64019;BME280;66942;52.138;5.216;2023-02-14T06:20:06;103457.0;;;2.32;75.36
64019;BME280;66942;52.138;5.216;2023-02-14T06:21:42;103459.99999999999;;;2.27;75.55
64019;BME280;66942;52.138;5.216;2023-02-14T06:23:18;103458.99999999999;;;2.56;74.75
64019;BME280;66942;52.138;5.216;2023-02-14T06:24:55;103457.0;;;2.56;74.42
64019;BME280;66942;52.138;5.216;2023-02-14T06:28:08;103461.99999999999;;;2.86;73.66
64019;BME280;66942;52.138;5.216;2023-02-14T06:29:44;103464.00000000001;;;2.65;74.08
64019;BME280;66942;52.138;5.216;2023-02-14T06:31:20;103469.0;;;2.46;74.67
64019;BME280;66942;52.138;5.216;2023-02-14T06:34:39;103464.00000000001;;;2.56;74.52
64019;BME280;66942;52.138;5.216;2023-02-14T06:36:15;103467.0;;;2.64;74.19
64019;BME280;66942;52.138;5.216;2023-02-14T06:37:52;103467.0;;;2.56;74.58
64019;BME280;66942;52.138;5.216;2023-02-14T06:39:28;103467.0;;;2.67;74.41
64019;BME280;66942;52.138;5.216;2023-02-14T06:42:43;103470.0;;;2.72;74.0
64019;BME280;66942;52.138;5.216;2023-02-14T06:44:20;103470.0;;;2.95;73.3
64019;BME280;66942;52.138;5.216;2023-02-14T06:45:56;103467.0;;;2.83;73.74
64019;BME280;66942;52.138;5.216;2023-02-14T06:49:08;103471.0;;;2.89;73.58
64019;BME280;66942;52.138;5.216;2023-02-14T06:50:45;103467.0;;;2.84;73.55
64019;BME280;66942;52.138;5.216;2023-02-14T06:52:22;103470.0;;;2.48;74.88
64019;BME280;66942;52.138;5.216;2023-02-14T06:55:35;103472.0;;;2.6;74.61
64019;BME280;66942;52.138;5.216;2023-02-14T06:57:11;103465.00000000001;;;2.48;74.92
64019;BME280;66942;52.138;5.216;2023-02-14T06:58:47;103470.0;;;2.39;75.14
64019;BME280;66942;52.138;5.216;2023-02-14T07:00:23;103464.00000000001;;;2.63;74.55
64019;BME280;66942;52.138;5.216;2023-02-14T07:03:35;103466.00000000001;;;2.46;74.89
64019;BME280;66942;52.138;5.216;2023-02-14T07:05:12;103467.0;;;2.41;75.17
64019;BME280;66942;52.138;5.216;2023-02-14T07:06:48;103466.00000000001;;;2.44;75.19
64019;BME280;66942;52.138;5.216;2023-02-14T07:10:01;103465.00000000001;;;2.39;75.36
64019;BME280;66942;52.138;5.216;2023-02-14T07:11:38;103464.00000000001;;;2.38;75.49
64019;BME280;66942;52.138;5.216;2023-02-14T07:13:14;103465.00000000001;;;2.4;75.45
64019;BME280;66942;52.138;5.216;2023-02-14T07:16:27;103467.0;;;2.36;75.48
64019;BME280;66942;52.138;5.216;2023-02-14T07:18:03;103463.00000000001;;;2.54;75.12
64019;BME280;66942;52.138;5.216;2023-02-14T07:19:40;103459.99999999999;;;2.54;75.02
64019;BME280;66942;52.138;5.216;2023-02-14T07:22:54;103464.00000000001;;;2.65;74.94
64019;BME280;66942;52.138;5.216;2023-02-14T07:24:30;103459.99999999999;;;2.56;75.36
64019;BME280;66942;52.138;5.216;2023-02-14T07:26:07;103458.99999999999;;;2.65;74.99
64019;BME280;66942;52.138;5.216;2023-02-14T07:27:43;103461.99999999999;;;2.77;74.91
64019;BME280;66942;52.138;5.216;2023-02-14T07:30:58;103461.99999999999;;;2.61;75.33
64019;BME280;66942;52.138;5.216;2023-02-14T07:32:35;103461.99999999999;;;2.6;75.8
64019;BME280;66942;52.138;5.216;2023-02-14T07:34:13;103461.99999999999;;;2.94;74.89
64019;BME280;66942;52.138;5.216;2023-02-14T07:37:26;103458.99999999999;;;3.13;74.31
64019;BME280;66942;52.138;5.216;2023-02-14T07:39:02;103466.00000000001;;;2.76;75.22
64019;BME280;66942;52.138;5.216;2023-02-14T07:40:38;103471.0;;;2.97;75.08
64019;BME280;66942;52.138;5.216;2023-02-14T07:42:14;103471.0;;;3.18;74.34
64019;BME280;66942;52.138;5.216;2023-02-14T07:45:28;103469.0;;;3.11;74.58
64019;BME280;66942;52.138;5.216;2023-02-14T07:47:04;103476.0;;;3.08;74.94
64019;BME280;66942;52.138;5.216;2023-02-14T07:48:41;103471.0;;;3.25;74.39
64019;BME280;66942;52.138;5.216;2023-02-14T07:51:54;103471.0;;;3.32;74.45
64019;BME280;66942;52.138;5.216;2023-02-14T07:53:30;103471.0;;;3.42;74.13
64019;BME280;66942;52.138;5.216;2023-02-14T07:55:07;103476.0;;;3.4;74.12
64019;BME280;66942;52.138;5.216;2023-02-14T07:58:20;103473.0;;;3.46;74.47
64019;BME280;66942;52.138;5.216;2023-02-14T07:59:56;103472.0;;;3.52;74.45
64019;BME280;66942;52.138;5.216;2023-02-14T08:01:32;103472.0;;;3.43;75.11
64019;BME280;66942;52.138;5.216;2023-02-14T08:03:08;103476.0;;;3.39;75.16
64019;BME280;66942;52.138;5.216;2023-02-14T08:06:21;103473.0;;;3.42;75.8
64019;BME280;66942;52.138;5.216;2023-02-14T08:07:56;103475.0;;;3.94;74.91
64019;BME280;66942;52.138;5.216;2023-02-14T08:09:33;103473.0;;;3.76;74.14
64019;BME280;66942;52.138;5.216;2023-02-14T08:13:00;103472.0;;;3.64;75.05
64019;BME280;66942;52.138;5.216;2023-02-14T08:14:37;103473.0;;;3.78;75.05
64019;BME280;66942;52.138;5.216;2023-02-14T08:16:14;103472.0;;;4.2;74.3
64019;BME280;66942;52.138;5.216;2023-02-14T08:17:50;103475.0;;;4.3;74.33
64019;BME280;66942;52.138;5.216;2023-02-14T08:21:05;103476.0;;;4.22;74.09
64019;BME280;66942;52.138;5.216;2023-02-14T08:22:42;103476.0;;;4.33;74.33
64019;BME280;66942;52.138;5.216;2023-02-14T08:24:18;103472.0;;;4.75;75.31
64019;BME280;66942;52.138;5.216;2023-02-14T08:27:31;103481.0;;;4.45;74.72
64019;BME280;66942;52.138;5.216;2023-02-14T08:29:08;103479.0;;;4.83;75.16
64019;BME280;66942;52.138;5.216;2023-02-14T08:30:44;103477.0;;;5.09;73.38
64019;BME280;66942;52.138;5.216;2023-02-14T08:33:57;103474.0;;;5.36;73.75
64019;BME280;66942;52.138;5.216;2023-02-14T08:35:34;103471.0;;;5.85;72.86
64019;BME280;66942;52.138;5.216;2023-02-14T08:37:10;103474.0;;;6.14;72.3
64019;BME280;66942;52.138;5.216;2023-02-14T08:38:47;103471.0;;;5.98;71.74
64019;BME280;66942;52.138;5.216;2023-02-14T08:42:00;103466.00000000001;;;5.89;71.74
64019;BME280;66942;52.138;5.216;2023-02-14T08:43:36;103470.0;;;5.86;72.24
64019;BME280;66942;52.138;5.216;2023-02-14T08:45:13;103471.0;;;5.57;73.13
64019;BME280;66942;52.138;5.216;2023-02-14T08:48:26;103468.0;;;5.96;72.3
64019;BME280;66942;52.138;5.216;2023-02-14T08:50:03;103467.0;;;5.93;72.45
64019;BME280;66942;52.138;5.216;2023-02-14T08:51:40;103466.00000000001;;;6.36;72.3
64019;BME280;66942;52.138;5.216;2023-02-14T08:54:52;103464.00000000001;;;6.59;73.05
64019;BME280;66942;52.138;5.216;2023-02-14T08:56:28;103459.99999999999;;;6.88;72.83
64019;BME280;66942;52.138;5.216;2023-02-14T08:58:06;103466.00000000001;;;7.06;73.16
64019;BME280;66942;52.138;5.216;2023-02-14T08:59:43;103463.00000000001;;;7.4;72.7
64019;BME280;66942;52.138;5.216;2023-02-14T09:02:56;103467.0;;;7.49;72.58
64019;BME280;66942;52.138;5.216;2023-02-14T09:04:34;103467.0;;;7.77;71.8
64019;BME280;66942;52.138;5.216;2023-02-14T09:06:12;103467.0;;;8.02;71.19
64019;BME280;66942;52.138;5.216;2023-02-14T09:09:27;103466.00000000001;;;7.85;71.8
64019;BME280;66942;52.138;5.216;2023-02-14T09:11:06;103467.0;;;7.96;72.24
64019;BME280;66942;52.138;5.216;2023-02-14T09:12:42;103465.00000000001;;;8.07;72.34
64019;BME280;66942;52.138;5.216;2023-02-14T09:14:20;103456.0;;;8.23;72.19
64019;BME280;66942;52.138;5.216;2023-02-14T09:17:33;103456.0;;;8.35;71.99
64019;BME280;66942;52.138;5.216;2023-02-14T09:19:10;103452.0;;;8.41;72.11
64019;BME280;66942;52.138;5.216;2023-02-14T09:20:45;103454.0;;;8.61;71.59
64019;BME280;66942;52.138;5.216;2023-02-14T09:23:58;103453.0;;;8.71;72.11
64019;BME280;66942;52.138;5.216;2023-02-14T09:25:34;103452.0;;;8.93;72.0
64019;BME280;66942;52.138;5.216;2023-02-14T09:27:10;103446.0;;;9.28;72.3
64019;BME280;66942;52.138;5.216;2023-02-14T09:30:23;103443.0;;;9.72;70.62
64019;BME280;66942;52.138;5.216;2023-02-14T09:32:01;103446.0;;;9.86;68.44
64019;BME280;66942;52.138;5.216;2023-02-14T09:33:37;103446.0;;;10.14;67.39
64019;BME280;66942;52.138;5.216;2023-02-14T09:38:19;103441.00000000001;;;10.71;65.55
64019;BME280;66942;52.138;5.216;2023-02-14T09:39:55;103436.99999999999;;;10.58;65.98
64019;BME280;66942;52.138;5.216;2023-02-14T09:42:07;103439.00000000001;;;11.18;64.44
64019;BME280;66942;52.138;5.216;2023-02-14T09:43:48;103433.0;;;11.56;62.45
64019;BME280;66942;52.138;5.216;2023-02-14T09:47:17;103432.0;;;11.91;61.56
64019;BME280;66942;52.138;5.216;2023-02-14T09:48:55;103433.0;;;11.81;60.98
64019;BME280;66942;52.138;5.216;2023-02-14T09:50:38;103431.0;;;11.84;61.22
64019;BME280;66942;52.138;5.216;2023-02-14T09:52:19;103430.0;;;11.79;62.01
64019;BME280;66942;52.138;5.216;2023-02-14T09:55:45;103428.0;;;12.17;60.49
64019;BME280;66942;52.138;5.216;2023-02-14T09:57:34;103423.0;;;12.12;59.98
64019;BME280;66942;52.138;5.216;2023-02-14T09:59:18;103428.0;;;12.3;59.43
64019;BME280;66942;52.138;5.216;2023-02-14T10:01:04;103426.0;;;12.24;60.21
64019;BME280;66942;52.138;5.216;2023-02-14T10:02:55;103425.0;;;12.2;59.91
64019;BME280;66942;52.138;5.216;2023-02-14T10:04:36;103428.0;;;12.41;58.8
64019;BME280;66942;52.138;5.216;2023-02-14T10:08:27;103428.0;;;12.29;58.56
64019;BME280;66942;52.138;5.216;2023-02-14T10:10:24;103433.0;;;12.4;58.57
64019;BME280;66942;52.138;5.216;2023-02-14T10:12:01;103432.0;;;12.27;60.09
64019;BME280;66942;52.138;5.216;2023-02-14T10:13:41;103428.0;;;12.11;60.23
64019;BME280;66942;52.138;5.216;2023-02-14T10:15:24;103433.99999999999;;;12.16;60.64
64019;BME280;66942;52.138;5.216;2023-02-14T10:17:05;103428.0;;;12.12;60.06
64019;BME280;66942;52.138;5.216;2023-02-14T10:20:30;103426.0;;;11.89;60.57
64019;BME280;66942;52.138;5.216;2023-02-14T10:22:13;103428.0;;;11.95;59.4
64019;BME280;66942;52.138;5.216;2023-02-14T10:23:56;103427.0;;;12.15;60.48
64019;BME280;66942;52.138;5.216;2023-02-14T10:25:39;103426.0;;;11.95;60.36
64019;BME280;66942;52.138;5.216;2023-02-14T10:29:12;103419.0;;;12.07;60.27
64019;BME280;66942;52.138;5.216;2023-02-14T10:31:04;103421.0;;;11.76;62.11
64019;BME280;66942;52.138;5.216;2023-02-14T10:32:48;103423.0;;;11.89;61.32
64019;BME280;66942;52.138;5.216;2023-02-14T10:34:34;103419.0;;;11.86;61.89
64019;BME280;66942;52.138;5.216;2023-02-14T10:36:22;103424.0;;;11.76;60.53
64019;BME280;66942;52.138;5.216;2023-02-14T10:38:12;103418.0;;;12.14;60.09
64019;BME280;66942;52.138;5.216;2023-02-14T10:41:59;103418.0;;;12.16;59.68
64019;BME280;66942;52.138;5.216;2023-02-14T10:43:46;103417.0;;;12.08;59.95
64019;BME280;66942;52.138;5.216;2023-02-14T10:45:34;103411.99999999999;;;12.03;59.83
64019;BME280;66942;52.138;5.216;2023-02-14T10:47:25;103414.00000000001;;;12.18;60.17
64019;BME280;66942;52.138;5.216;2023-02-14T10:49:17;103408.99999999999;;;12.12;60.6
64019;BME280;66942;52.138;5.216;2023-02-14T10:51:05;103408.0;;;12.31;60.14
64019;BME280;66942;52.138;5.216;2023-02-14T10:52:55;103408.0;;;12.56;58.42
64019;BME280;66942;52.138;5.216;2023-02-14T10:56:22;103408.0;;;12.62;57.97
64019;BME280;66942;52.138;5.216;2023-02-14T10:58:05;103403.0;;;12.67;57.42
64019;BME280;66942;52.138;5.216;2023-02-14T10:59:50;103405.0;;;12.49;56.94
64019;BME280;66942;52.138;5.216;2023-02-14T11:01:29;103406.0;;;12.9;56.5
64019;BME280;66942;52.138;5.216;2023-02-14T11:03:07;103404.0;;;13.17;57.54